sensor_id;sensor_type;location;lat;lon;timestamp;temperature;humidity
51595;DHT22;37677;53.254;6.594;2022-12-01T00:02:08;6.40;24.20
51595;DHT22;37677;53.254;6.594;2022-12-01T00:04:34;6.70;24.80
51595;DHT22;37677;53.254;6.594;2022-12-01T00:06:59;8.40;25.10
51595;DHT22;37677;53.254;6.594;2022-12-01T00:09:25;6.60;24.30
51595;DHT22;37677;53.254;6.594;2022-12-01T00:12:09;8.10;23.60
51595;DHT22;37677;53.254;6.594;2022-12-01T00:14:35;8.00;25.40
51595;DHT22;37677;53.254;6.594;2022-12-01T00:17:00;8.30;25.50
51595;DHT22;37677;53.254;6.594;2022-12-01T00:19:26;6.70;24.40
51595;DHT22;37677;53.254;6.594;2022-12-01T00:21:53;6.70;24.30
51595;DHT22;37677;53.254;6.594;2022-12-01T00:24:18;6.70;24.10
51595;DHT22;37677;53.254;6.594;2022-12-01T00:26:44;6.60;24.00
51595;DHT22;37677;53.254;6.594;2022-12-01T00:29:10;6.80;24.00
51595;DHT22;37677;53.254;6.594;2022-12-01T00:31:36;7.50;24.20
51595;DHT22;37677;53.254;6.594;2022-12-01T00:34:02;6.70;24.10
51595;DHT22;37677;53.254;6.594;2022-12-01T00:36:27;6.60;23.90
51595;DHT22;37677;53.254;6.594;2022-12-01T00:38:54;6.60;23.80
51595;DHT22;37677;53.254;6.594;2022-12-01T00:41:21;7.40;25.00
51595;DHT22;37677;53.254;6.594;2022-12-01T00:43:47;6.60;24.70
51595;DHT22;37677;53.254;6.594;2022-12-01T00:46:13;6.90;23.90
51595;DHT22;37677;53.254;6.594;2022-12-01T00:48:39;6.80;24.20
51595;DHT22;37677;53.254;6.594;2022-12-01T00:51:04;6.90;23.60
51595;DHT22;37677;53.254;6.594;2022-12-01T00:53:30;6.50;23.40
51595;DHT22;37677;53.254;6.594;2022-12-01T00:55:56;7.90;24.10
51595;DHT22;37677;53.254;6.594;2022-12-01T00:58:22;7.20;23.80
51595;DHT22;37677;53.254;6.594;2022-12-01T01:00:49;7.50;23.60
51595;DHT22;37677;53.254;6.594;2022-12-01T01:03:20;6.50;23.10
51595;DHT22;37677;53.254;6.594;2022-12-01T01:05:46;8.20;23.80
51595;DHT22;37677;53.254;6.594;2022-12-01T01:08:12;7.70;23.20
51595;DHT22;37677;53.254;6.594;2022-12-01T01:10:44;6.10;21.80
51595;DHT22;37677;53.254;6.594;2022-12-01T01:13:11;8.20;22.70
51595;DHT22;37677;53.254;6.594;2022-12-01T01:15:37;8.20;22.40
51595;DHT22;37677;53.254;6.594;2022-12-01T01:18:04;7.90;21.50
51595;DHT22;37677;53.254;6.594;2022-12-01T01:20:30;6.50;21.30
51595;DHT22;37677;53.254;6.594;2022-12-01T01:22:56;6.50;21.50
51595;DHT22;37677;53.254;6.594;2022-12-01T01:25:21;8.50;22.30
51595;DHT22;37677;53.254;6.594;2022-12-01T01:27:47;6.70;21.40
51595;DHT22;37677;53.254;6.594;2022-12-01T01:30:13;7.90;21.50
51595;DHT22;37677;53.254;6.594;2022-12-01T01:32:38;6.40;18.80
51595;DHT22;37677;53.254;6.594;2022-12-01T01:35:04;7.20;20.20
51595;DHT22;37677;53.254;6.594;2022-12-01T01:37:30;6.50;19.30
51595;DHT22;37677;53.254;6.594;2022-12-01T01:39:56;7.20;20.30
51595;DHT22;37677;53.254;6.594;2022-12-01T01:42:21;6.50;19.90
51595;DHT22;37677;53.254;6.594;2022-12-01T01:44:49;6.50;19.90
51595;DHT22;37677;53.254;6.594;2022-12-01T01:47:29;6.40;19.90
51595;DHT22;37677;53.254;6.594;2022-12-01T01:49:58;6.50;20.20
51595;DHT22;37677;53.254;6.594;2022-12-01T01:52:30;7.70;20.50
51595;DHT22;37677;53.254;6.594;2022-12-01T01:54:57;6.50;19.80
51595;DHT22;37677;53.254;6.594;2022-12-01T01:57:26;6.60;20.20
51595;DHT22;37677;53.254;6.594;2022-12-01T01:59:58;7.50;20.40
51595;DHT22;37677;53.254;6.594;2022-12-01T02:02:25;6.40;20.80
51595;DHT22;37677;53.254;6.594;2022-12-01T02:04:56;6.60;21.20
51595;DHT22;37677;53.254;6.594;2022-12-01T02:07:23;6.40;21.30
51595;DHT22;37677;53.254;6.594;2022-12-01T02:09:49;6.50;20.90
51595;DHT22;37677;53.254;6.594;2022-12-01T02:12:29;6.50;20.90
51595;DHT22;37677;53.254;6.594;2022-12-01T02:17:56;6.40;18.30
51595;DHT22;37677;53.254;6.594;2022-12-01T02:34:23;6.50;20.70
51595;DHT22;37677;53.254;6.594;2022-12-01T02:36:59;6.40;18.00
51595;DHT22;37677;53.254;6.594;2022-12-01T02:39:36;6.60;20.60
51595;DHT22;37677;53.254;6.594;2022-12-01T02:42:14;7.40;21.40
51595;DHT22;37677;53.254;6.594;2022-12-01T02:45:04;6.50;21.00
51595;DHT22;37677;53.254;6.594;2022-12-01T02:47:33;6.50;20.30
51595;DHT22;37677;53.254;6.594;2022-12-01T02:50:00;6.50;20.60
51595;DHT22;37677;53.254;6.594;2022-12-01T02:52:27;8.10;20.90
51595;DHT22;37677;53.254;6.594;2022-12-01T02:54:54;6.70;19.90
51595;DHT22;37677;53.254;6.594;2022-12-01T02:57:20;7.90;20.40
51595;DHT22;37677;53.254;6.594;2022-12-01T02:59:48;6.50;19.50
51595;DHT22;37677;53.254;6.594;2022-12-01T03:05:24;6.50;17.10
51595;DHT22;37677;53.254;6.594;2022-12-01T03:10:53;6.40;17.10
51595;DHT22;37677;53.254;6.594;2022-12-01T03:13:43;7.00;20.10
51595;DHT22;37677;53.254;6.594;2022-12-01T03:16:53;6.50;18.60
51595;DHT22;37677;53.254;6.594;2022-12-01T03:22:33;6.50;21.10
51595;DHT22;37677;53.254;6.594;2022-12-01T03:24:53;6.40;19.60
51595;DHT22;37677;53.254;6.594;2022-12-01T03:27:23;6.70;22.40
51595;DHT22;37677;53.254;6.594;2022-12-01T03:29:54;6.50;22.80
51595;DHT22;37677;53.254;6.594;2022-12-01T03:35:03;6.40;21.20
51595;DHT22;37677;53.254;6.594;2022-12-01T03:37:31;6.50;23.10
51595;DHT22;37677;53.254;6.594;2022-12-01T03:40:01;8.30;23.80
51595;DHT22;37677;53.254;6.594;2022-12-01T03:42:45;7.90;23.60
51595;DHT22;37677;53.254;6.594;2022-12-01T03:45:22;6.50;23.30
51595;DHT22;37677;53.254;6.594;2022-12-01T03:47:49;6.50;23.50
51595;DHT22;37677;53.254;6.594;2022-12-01T03:50:16;8.20;24.20
51595;DHT22;37677;53.254;6.594;2022-12-01T03:55:31;6.40;21.50
51595;DHT22;37677;53.254;6.594;2022-12-01T03:58:13;7.20;23.80
51595;DHT22;37677;53.254;6.594;2022-12-01T04:00:41;6.60;23.60
51595;DHT22;37677;53.254;6.594;2022-12-01T04:03:16;6.60;23.40
51595;DHT22;37677;53.254;6.594;2022-12-01T04:05:42;6.30;21.70
51595;DHT22;37677;53.254;6.594;2022-12-01T04:08:08;6.60;23.20
51595;DHT22;37677;53.254;6.594;2022-12-01T04:10:33;6.50;23.40
51595;DHT22;37677;53.254;6.594;2022-12-01T04:12:59;6.60;23.90
51595;DHT22;37677;53.254;6.594;2022-12-01T04:15:26;6.50;24.40
51595;DHT22;37677;53.254;6.594;2022-12-01T04:17:52;6.50;25.10
51595;DHT22;37677;53.254;6.594;2022-12-01T04:20:18;6.60;25.40
51595;DHT22;37677;53.254;6.594;2022-12-01T04:22:45;6.50;25.80
51595;DHT22;37677;53.254;6.594;2022-12-01T04:25:11;6.70;26.10
51595;DHT22;37677;53.254;6.594;2022-12-01T04:27:37;6.50;26.00
51595;DHT22;37677;53.254;6.594;2022-12-01T04:30:07;8.00;26.60
51595;DHT22;37677;53.254;6.594;2022-12-01T04:32:40;6.40;25.40
51595;DHT22;37677;53.254;6.594;2022-12-01T04:35:07;6.40;23.90
51595;DHT22;37677;53.254;6.594;2022-12-01T04:37:34;6.40;25.80
51595;DHT22;37677;53.254;6.594;2022-12-01T04:39:59;6.60;26.80
51595;DHT22;37677;53.254;6.594;2022-12-01T04:42:25;6.50;27.20
51595;DHT22;37677;53.254;6.594;2022-12-01T04:44:51;6.70;27.50
51595;DHT22;37677;53.254;6.594;2022-12-01T04:47:16;7.50;27.60
51595;DHT22;37677;53.254;6.594;2022-12-01T04:49:42;6.40;27.20
51595;DHT22;37677;53.254;6.594;2022-12-01T04:52:08;7.60;27.80
51595;DHT22;37677;53.254;6.594;2022-12-01T04:54:33;7.80;27.70
51595;DHT22;37677;53.254;6.594;2022-12-01T04:56:59;7.70;28.00
51595;DHT22;37677;53.254;6.594;2022-12-01T04:59:25;6.50;27.20
51595;DHT22;37677;53.254;6.594;2022-12-01T05:01:51;6.40;27.30
51595;DHT22;37677;53.254;6.594;2022-12-01T05:04:16;6.80;26.60
51595;DHT22;37677;53.254;6.594;2022-12-01T05:06:42;6.40;25.50
51595;DHT22;37677;53.254;6.594;2022-12-01T05:09:12;7.20;24.50
51595;DHT22;37677;53.254;6.594;2022-12-01T05:11:38;7.80;23.60
51595;DHT22;37677;53.254;6.594;2022-12-01T05:14:04;5.90;21.70
51595;DHT22;37677;53.254;6.594;2022-12-01T05:16:32;6.10;21.80
51595;DHT22;37677;53.254;6.594;2022-12-01T05:19:03;5.90;20.90
51595;DHT22;37677;53.254;6.594;2022-12-01T05:21:49;5.20;29.20
51595;DHT22;37677;53.254;6.594;2022-12-01T05:24:15;5.90;20.30
51595;DHT22;37677;53.254;6.594;2022-12-01T05:26:42;6.90;21.00
51595;DHT22;37677;53.254;6.594;2022-12-01T05:29:08;7.40;21.40
51595;DHT22;37677;53.254;6.594;2022-12-01T05:31:35;6.60;21.40
51595;DHT22;37677;53.254;6.594;2022-12-01T05:34:01;7.40;22.20
51595;DHT22;37677;53.254;6.594;2022-12-01T05:36:28;5.30;21.70
51595;DHT22;37677;53.254;6.594;2022-12-01T05:38:54;5.20;22.10
51595;DHT22;37677;53.254;6.594;2022-12-01T05:41:20;5.40;28.70
51595;DHT22;37677;53.254;6.594;2022-12-01T05:43:45;5.20;51.30
51595;DHT22;37677;53.254;6.594;2022-12-01T05:46:11;4.80;32.10
51595;DHT22;37677;53.254;6.594;2022-12-01T05:48:37;4.90;22.20
51595;DHT22;37677;53.254;6.594;2022-12-01T05:51:14;4.80;22.80
51595;DHT22;37677;53.254;6.594;2022-12-01T05:53:41;4.80;23.50
51595;DHT22;37677;53.254;6.594;2022-12-01T05:56:07;3.50;23.00
51595;DHT22;37677;53.254;6.594;2022-12-01T05:58:33;4.60;24.00
51595;DHT22;37677;53.254;6.594;2022-12-01T06:00:59;4.60;24.80
51595;DHT22;37677;53.254;6.594;2022-12-01T06:03:25;7.60;26.70
51595;DHT22;37677;53.254;6.594;2022-12-01T06:05:51;6.40;26.80
51595;DHT22;37677;53.254;6.594;2022-12-01T06:08:16;4.80;26.80
51595;DHT22;37677;53.254;6.594;2022-12-01T06:10:43;4.70;26.70
51595;DHT22;37677;53.254;6.594;2022-12-01T06:13:09;7.20;28.40
51595;DHT22;37677;53.254;6.594;2022-12-01T06:15:35;4.70;27.10
51595;DHT22;37677;53.254;6.594;2022-12-01T06:18:01;4.40;27.30
51595;DHT22;37677;53.254;6.594;2022-12-01T06:20:26;5.00;27.60
51595;DHT22;37677;53.254;6.594;2022-12-01T06:22:52;7.00;28.70
51595;DHT22;37677;53.254;6.594;2022-12-01T06:25:18;4.90;27.90
51595;DHT22;37677;53.254;6.594;2022-12-01T06:27:43;4.80;27.80
51595;DHT22;37677;53.254;6.594;2022-12-01T06:30:10;4.70;27.50
51595;DHT22;37677;53.254;6.594;2022-12-01T06:32:38;4.60;26.60
51595;DHT22;37677;53.254;6.594;2022-12-01T06:35:04;6.90;27.00
51595;DHT22;37677;53.254;6.594;2022-12-01T06:37:29;4.50;24.60
51595;DHT22;37677;53.254;6.594;2022-12-01T06:39:55;6.50;25.50
51595;DHT22;37677;53.254;6.594;2022-12-01T06:42:21;4.40;23.40
51595;DHT22;37677;53.254;6.594;2022-12-01T06:44:47;4.40;22.90
51595;DHT22;37677;53.254;6.594;2022-12-01T06:47:12;4.20;22.30
51595;DHT22;37677;53.254;6.594;2022-12-01T06:49:40;5.80;22.40
51595;DHT22;37677;53.254;6.594;2022-12-01T06:52:06;6.20;22.40
51595;DHT22;37677;53.254;6.594;2022-12-01T06:54:31;5.40;21.90
51595;DHT22;37677;53.254;6.594;2022-12-01T06:56:58;5.80;22.00
51595;DHT22;37677;53.254;6.594;2022-12-01T06:59:23;4.70;21.60
51595;DHT22;37677;53.254;6.594;2022-12-01T07:01:50;4.00;21.90
51595;DHT22;37677;53.254;6.594;2022-12-01T07:04:16;5.90;22.20
51595;DHT22;37677;53.254;6.594;2022-12-01T07:06:41;5.50;22.40
51595;DHT22;37677;53.254;6.594;2022-12-01T07:09:07;3.80;21.70
51595;DHT22;37677;53.254;6.594;2022-12-01T07:11:33;3.60;21.90
51595;DHT22;37677;53.254;6.594;2022-12-01T07:14:01;3.60;22.00
51595;DHT22;37677;53.254;6.594;2022-12-01T07:16:27;6.50;22.80
51595;DHT22;37677;53.254;6.594;2022-12-01T07:18:52;3.70;22.10
51595;DHT22;37677;53.254;6.594;2022-12-01T07:21:18;3.50;22.20
51595;DHT22;37677;53.254;6.594;2022-12-01T07:28:37;3.30;21.90
51595;DHT22;37677;53.254;6.594;2022-12-01T07:31:05;3.30;30.50
51595;DHT22;37677;53.254;6.594;2022-12-01T07:33:32;3.30;33.10
51595;DHT22;37677;53.254;6.594;2022-12-01T07:35:58;4.80;22.00
51595;DHT22;37677;53.254;6.594;2022-12-01T07:38:26;3.20;21.70
51595;DHT22;37677;53.254;6.594;2022-12-01T07:40:51;3.20;22.20
51595;DHT22;37677;53.254;6.594;2022-12-01T07:43:17;3.20;22.20
51595;DHT22;37677;53.254;6.594;2022-12-01T07:45:43;3.10;22.60
51595;DHT22;37677;53.254;6.594;2022-12-01T07:48:08;3.90;23.50
51595;DHT22;37677;53.254;6.594;2022-12-01T07:50:34;3.20;23.40
51595;DHT22;37677;53.254;6.594;2022-12-01T07:52:59;3.80;23.80
51595;DHT22;37677;53.254;6.594;2022-12-01T07:55:25;3.10;23.90
51595;DHT22;37677;53.254;6.594;2022-12-01T07:57:51;3.20;24.50
51595;DHT22;37677;53.254;6.594;2022-12-01T08:00:17;3.60;24.90
51595;DHT22;37677;53.254;6.594;2022-12-01T08:02:43;3.40;24.70
51595;DHT22;37677;53.254;6.594;2022-12-01T08:05:09;3.20;25.50
51595;DHT22;37677;53.254;6.594;2022-12-01T08:07:35;3.40;25.80
51595;DHT22;37677;53.254;6.594;2022-12-01T08:10:01;5.20;26.90
51595;DHT22;37677;53.254;6.594;2022-12-01T08:12:26;3.30;26.40
51595;DHT22;37677;53.254;6.594;2022-12-01T08:14:52;3.70;26.50
51595;DHT22;37677;53.254;6.594;2022-12-01T08:17:18;3.30;26.60
51595;DHT22;37677;53.254;6.594;2022-12-01T08:19:44;3.40;27.00
51595;DHT22;37677;53.254;6.594;2022-12-01T08:22:09;3.40;27.00
51595;DHT22;37677;53.254;6.594;2022-12-01T08:24:35;3.90;27.20
51595;DHT22;37677;53.254;6.594;2022-12-01T08:27:01;3.40;27.00
51595;DHT22;37677;53.254;6.594;2022-12-01T08:29:26;3.40;27.10
51595;DHT22;37677;53.254;6.594;2022-12-01T08:31:52;3.50;26.90
51595;DHT22;37677;53.254;6.594;2022-12-01T08:34:18;3.60;27.30
51595;DHT22;37677;53.254;6.594;2022-12-01T08:36:43;3.50;27.50
51595;DHT22;37677;53.254;6.594;2022-12-01T08:39:09;5.30;28.10
51595;DHT22;37677;53.254;6.594;2022-12-01T08:41:35;3.60;27.30
51595;DHT22;37677;53.254;6.594;2022-12-01T08:44:01;5.90;28.20
51595;DHT22;37677;53.254;6.594;2022-12-01T08:46:31;4.70;27.90
51595;DHT22;37677;53.254;6.594;2022-12-01T08:48:57;4.20;28.00
51595;DHT22;37677;53.254;6.594;2022-12-01T08:51:23;4.40;28.40
51595;DHT22;37677;53.254;6.594;2022-12-01T08:53:49;4.70;29.00
51595;DHT22;37677;53.254;6.594;2022-12-01T08:56:31;3.90;27.60
51595;DHT22;37677;53.254;6.594;2022-12-01T08:58:57;4.00;29.40
51595;DHT22;37677;53.254;6.594;2022-12-01T09:01:23;4.20;29.10
51595;DHT22;37677;53.254;6.594;2022-12-01T09:03:50;4.40;29.30
51595;DHT22;37677;53.254;6.594;2022-12-01T09:06:31;4.10;28.00
51595;DHT22;37677;53.254;6.594;2022-12-01T09:08:58;4.40;29.60
51595;DHT22;37677;53.254;6.594;2022-12-01T09:11:25;4.30;29.20
51595;DHT22;37677;53.254;6.594;2022-12-01T09:13:50;4.40;29.60
51595;DHT22;37677;53.254;6.594;2022-12-01T09:16:17;4.60;29.70
51595;DHT22;37677;53.254;6.594;2022-12-01T09:18:44;4.80;30.90
51595;DHT22;37677;53.254;6.594;2022-12-01T09:21:14;4.70;45.50
51595;DHT22;37677;53.254;6.594;2022-12-01T09:23:41;4.60;50.90
51595;DHT22;37677;53.254;6.594;2022-12-01T09:26:07;5.00;33.00
51595;DHT22;37677;53.254;6.594;2022-12-01T09:28:35;5.10;32.40
51595;DHT22;37677;53.254;6.594;2022-12-01T09:31:06;5.10;31.30
51595;DHT22;37677;53.254;6.594;2022-12-01T09:33:32;6.30;30.80
51595;DHT22;37677;53.254;6.594;2022-12-01T09:35:59;5.20;27.90
51595;DHT22;37677;53.254;6.594;2022-12-01T09:38:25;5.40;27.90
51595;DHT22;37677;53.254;6.594;2022-12-01T09:40:53;5.30;26.80
51595;DHT22;37677;53.254;6.594;2022-12-01T09:43:23;5.70;26.60
51595;DHT22;37677;53.254;6.594;2022-12-01T09:46:01;5.60;26.50
51595;DHT22;37677;53.254;6.594;2022-12-01T09:48:33;6.80;26.60
51595;DHT22;37677;53.254;6.594;2022-12-01T09:51:14;5.70;25.30
51595;DHT22;37677;53.254;6.594;2022-12-01T09:53:41;5.70;24.90
51595;DHT22;37677;53.254;6.594;2022-12-01T09:56:18;5.90;25.30
51595;DHT22;37677;53.254;6.594;2022-12-01T09:58:45;6.80;26.00
51595;DHT22;37677;53.254;6.594;2022-12-01T10:01:16;6.20;28.60
51595;DHT22;37677;53.254;6.594;2022-12-01T10:06:15;6.20;17.60
51595;DHT22;37677;53.254;6.594;2022-12-01T10:09:16;6.30;18.80
51595;DHT22;37677;53.254;6.594;2022-12-01T10:11:44;6.70;21.10
51595;DHT22;37677;53.254;6.594;2022-12-01T10:14:16;6.90;19.30
51595;DHT22;37677;53.254;6.594;2022-12-01T10:25:26;7.30;1.00
51595;DHT22;37677;53.254;6.594;2022-12-01T10:30:21;8.30;1.00
51595;DHT22;37677;53.254;6.594;2022-12-01T10:35:26;7.60;1.00
51595;DHT22;37677;53.254;6.594;2022-12-01T10:38:01;7.10;1.00
51595;DHT22;37677;53.254;6.594;2022-12-01T10:40:28;8.50;1.00
51595;DHT22;37677;53.254;6.594;2022-12-01T10:42:58;8.60;1.00
51595;DHT22;37677;53.254;6.594;2022-12-01T10:45:28;6.90;1.00
51595;DHT22;37677;53.254;6.594;2022-12-01T10:48:20;7.10;1.00
51595;DHT22;37677;53.254;6.594;2022-12-01T10:50:54;7.10;1.00
51595;DHT22;37677;53.254;6.594;2022-12-01T10:53:31;7.50;1.00
51595;DHT22;37677;53.254;6.594;2022-12-01T10:56:12;7.00;1.00
51595;DHT22;37677;53.254;6.594;2022-12-01T10:58:53;9.40;1.00
51595;DHT22;37677;53.254;6.594;2022-12-01T11:01:30;8.10;8.50
51595;DHT22;37677;53.254;6.594;2022-12-01T11:04:05;8.90;1.80
51595;DHT22;37677;53.254;6.594;2022-12-01T11:06:32;8.80;1.00
51595;DHT22;37677;53.254;6.594;2022-12-01T11:09:05;10.20;1.00
51595;DHT22;37677;53.254;6.594;2022-12-01T11:11:34;11.40;1.00
51595;DHT22;37677;53.254;6.594;2022-12-01T11:14:04;9.80;1.00
51595;DHT22;37677;53.254;6.594;2022-12-01T11:16:42;10.60;1.00
51595;DHT22;37677;53.254;6.594;2022-12-01T11:19:28;10.20;1.00
51595;DHT22;37677;53.254;6.594;2022-12-01T11:21:56;10.40;1.00
51595;DHT22;37677;53.254;6.594;2022-12-01T11:26:55;10.70;1.00
51595;DHT22;37677;53.254;6.594;2022-12-01T11:29:34;11.70;1.00
51595;DHT22;37677;53.254;6.594;2022-12-01T11:32:26;10.80;1.00
51595;DHT22;37677;53.254;6.594;2022-12-01T11:37:41;10.40;99.90
51595;DHT22;37677;53.254;6.594;2022-12-01T11:40:23;10.20;99.90
51595;DHT22;37677;53.254;6.594;2022-12-01T11:42:52;11.30;99.90
51595;DHT22;37677;53.254;6.594;2022-12-01T11:45:33;10.20;99.90
51595;DHT22;37677;53.254;6.594;2022-12-01T11:53:28;8.50;1.00
51595;DHT22;37677;53.254;6.594;2022-12-01T11:56:18;8.20;1.00
51595;DHT22;37677;53.254;6.594;2022-12-01T11:58:49;8.10;1.00
51595;DHT22;37677;53.254;6.594;2022-12-01T12:07:15;7.90;1.00
51595;DHT22;37677;53.254;6.594;2022-12-01T12:15:21;10.30;1.00
51595;DHT22;37677;53.254;6.594;2022-12-01T12:23:24;7.70;1.00
51595;DHT22;37677;53.254;6.594;2022-12-01T12:26:21;7.90;1.00
51595;DHT22;37677;53.254;6.594;2022-12-01T12:32:00;8.00;1.00
51595;DHT22;37677;53.254;6.594;2022-12-01T12:34:43;11.10;1.00
51595;DHT22;37677;53.254;6.594;2022-12-01T12:37:18;8.10;1.00
51595;DHT22;37677;53.254;6.594;2022-12-01T12:45:50;8.30;1.00
51595;DHT22;37677;53.254;6.594;2022-12-01T12:51:16;7.90;1.00
51595;DHT22;37677;53.254;6.594;2022-12-01T12:53:58;8.00;1.00
51595;DHT22;37677;53.254;6.594;2022-12-01T12:56:29;8.20;1.00
51595;DHT22;37677;53.254;6.594;2022-12-01T12:58:56;7.70;1.00
51595;DHT22;37677;53.254;6.594;2022-12-01T13:01:31;7.60;1.00
51595;DHT22;37677;53.254;6.594;2022-12-01T13:04:08;8.70;1.00
51595;DHT22;37677;53.254;6.594;2022-12-01T13:09:13;9.50;1.00
51595;DHT22;37677;53.254;6.594;2022-12-01T13:12:27;7.40;1.00
51595;DHT22;37677;53.254;6.594;2022-12-01T13:14:46;7.40;1.00
51595;DHT22;37677;53.254;6.594;2022-12-01T13:17:27;8.30;1.00
51595;DHT22;37677;53.254;6.594;2022-12-01T13:19:54;9.60;1.00
51595;DHT22;37677;53.254;6.594;2022-12-01T13:22:23;7.20;1.00
51595;DHT22;37677;53.254;6.594;2022-12-01T13:24:53;7.10;1.00
51595;DHT22;37677;53.254;6.594;2022-12-01T13:27:22;7.40;1.00
51595;DHT22;37677;53.254;6.594;2022-12-01T13:29:51;7.20;1.00
51595;DHT22;37677;53.254;6.594;2022-12-01T13:32:36;7.90;1.00
51595;DHT22;37677;53.254;6.594;2022-12-01T13:35:27;9.70;1.00
51595;DHT22;37677;53.254;6.594;2022-12-01T13:37:51;7.10;1.00
51595;DHT22;37677;53.254;6.594;2022-12-01T13:40:26;6.60;1.00
51595;DHT22;37677;53.254;6.594;2022-12-01T13:43:03;8.80;1.00
51595;DHT22;37677;53.254;6.594;2022-12-01T13:45:35;7.20;1.00
51595;DHT22;37677;53.254;6.594;2022-12-01T13:48:03;7.10;1.00
51595;DHT22;37677;53.254;6.594;2022-12-01T13:50:36;7.10;1.00
51595;DHT22;37677;53.254;6.594;2022-12-01T13:53:28;7.30;1.00
51595;DHT22;37677;53.254;6.594;2022-12-01T13:58:49;7.00;1.00
51595;DHT22;37677;53.254;6.594;2022-12-01T14:06:37;7.40;1.00
51595;DHT22;37677;53.254;6.594;2022-12-01T14:09:21;6.90;1.00
51595;DHT22;37677;53.254;6.594;2022-12-01T14:12:27;6.90;1.00
51595;DHT22;37677;53.254;6.594;2022-12-01T14:15:00;6.90;1.00
51595;DHT22;37677;53.254;6.594;2022-12-01T14:17:31;6.80;1.00
51595;DHT22;37677;53.254;6.594;2022-12-01T14:20:27;6.70;1.00
51595;DHT22;37677;53.254;6.594;2022-12-01T14:23:12;6.80;1.00
51595;DHT22;37677;53.254;6.594;2022-12-01T14:25:39;6.80;1.00
51595;DHT22;37677;53.254;6.594;2022-12-01T14:28:13;6.80;1.00
51595;DHT22;37677;53.254;6.594;2022-12-01T14:36:35;6.90;1.00
51595;DHT22;37677;53.254;6.594;2022-12-01T14:39:11;7.40;1.00
51595;DHT22;37677;53.254;6.594;2022-12-01T14:41:42;8.60;1.00
51595;DHT22;37677;53.254;6.594;2022-12-01T14:47:06;7.90;1.00
51595;DHT22;37677;53.254;6.594;2022-12-01T14:52:12;9.00;1.00
51595;DHT22;37677;53.254;6.594;2022-12-01T14:54:44;8.50;1.00
51595;DHT22;37677;53.254;6.594;2022-12-01T14:57:12;8.30;1.00
51595;DHT22;37677;53.254;6.594;2022-12-01T14:59:40;8.30;1.00
51595;DHT22;37677;53.254;6.594;2022-12-01T15:02:08;9.30;1.00
51595;DHT22;37677;53.254;6.594;2022-12-01T15:05:11;8.40;1.00
51595;DHT22;37677;53.254;6.594;2022-12-01T15:07:44;8.20;1.00
51595;DHT22;37677;53.254;6.594;2022-12-01T15:10:28;10.60;1.00
51595;DHT22;37677;53.254;6.594;2022-12-01T15:13:21;8.50;1.00
51595;DHT22;37677;53.254;6.594;2022-12-01T15:15:53;8.50;1.00
51595;DHT22;37677;53.254;6.594;2022-12-01T15:18:22;8.60;1.00
51595;DHT22;37677;53.254;6.594;2022-12-01T15:20:49;8.60;1.00
51595;DHT22;37677;53.254;6.594;2022-12-01T15:23:19;9.50;1.00
51595;DHT22;37677;53.254;6.594;2022-12-01T15:25:45;8.40;1.00
51595;DHT22;37677;53.254;6.594;2022-12-01T15:28:18;11.10;1.00
51595;DHT22;37677;53.254;6.594;2022-12-01T15:30:50;8.70;1.00
51595;DHT22;37677;53.254;6.594;2022-12-01T15:33:30;8.30;1.00
51595;DHT22;37677;53.254;6.594;2022-12-01T15:35:56;8.70;1.00
51595;DHT22;37677;53.254;6.594;2022-12-01T15:38:34;8.90;1.00
51595;DHT22;37677;53.254;6.594;2022-12-01T15:41:02;11.20;99.90
51595;DHT22;37677;53.254;6.594;2022-12-01T15:43:37;10.60;99.90
51595;DHT22;37677;53.254;6.594;2022-12-01T15:46:15;9.00;99.90
51595;DHT22;37677;53.254;6.594;2022-12-01T15:48:42;8.90;99.90
51595;DHT22;37677;53.254;6.594;2022-12-01T15:53:40;9.00;99.90
51595;DHT22;37677;53.254;6.594;2022-12-01T15:56:10;8.80;99.90
51595;DHT22;37677;53.254;6.594;2022-12-01T15:58:43;6.40;99.90
51595;DHT22;37677;53.254;6.594;2022-12-01T16:01:17;8.70;99.90
51595;DHT22;37677;53.254;6.594;2022-12-01T16:03:55;9.40;99.90
51595;DHT22;37677;53.254;6.594;2022-12-01T16:06:25;10.10;99.90
51595;DHT22;37677;53.254;6.594;2022-12-01T16:08:55;9.10;1.00
51595;DHT22;37677;53.254;6.594;2022-12-01T16:14:02;7.50;1.00
51595;DHT22;37677;53.254;6.594;2022-12-01T16:16:46;7.10;1.00
51595;DHT22;37677;53.254;6.594;2022-12-01T16:27:04;4.50;1.00
51595;DHT22;37677;53.254;6.594;2022-12-01T16:29:47;6.60;1.00
51595;DHT22;37677;53.254;6.594;2022-12-01T16:32:22;6.50;1.00
51595;DHT22;37677;53.254;6.594;2022-12-01T16:34:52;7.90;1.00
51595;DHT22;37677;53.254;6.594;2022-12-01T16:37:19;7.80;1.00
51595;DHT22;37677;53.254;6.594;2022-12-01T16:39:46;8.60;1.00
51595;DHT22;37677;53.254;6.594;2022-12-01T16:42:13;6.20;1.00
51595;DHT22;37677;53.254;6.594;2022-12-01T16:44:40;7.50;1.00
51595;DHT22;37677;53.254;6.594;2022-12-01T16:47:21;6.60;1.00
51595;DHT22;37677;53.254;6.594;2022-12-01T16:49:47;8.50;1.00
51595;DHT22;37677;53.254;6.594;2022-12-01T16:52:13;5.00;1.00
51595;DHT22;37677;53.254;6.594;2022-12-01T16:54:39;7.00;1.00
51595;DHT22;37677;53.254;6.594;2022-12-01T16:57:05;6.00;1.00
51595;DHT22;37677;53.254;6.594;2022-12-01T16:59:31;8.60;1.00
51595;DHT22;37677;53.254;6.594;2022-12-01T17:01:57;8.00;1.00
51595;DHT22;37677;53.254;6.594;2022-12-01T17:04:23;5.70;1.00
51595;DHT22;37677;53.254;6.594;2022-12-01T17:06:49;6.20;1.00
51595;DHT22;37677;53.254;6.594;2022-12-01T17:09:15;8.40;1.00
51595;DHT22;37677;53.254;6.594;2022-12-01T17:11:41;8.70;1.00
51595;DHT22;37677;53.254;6.594;2022-12-01T17:14:07;7.60;1.00
51595;DHT22;37677;53.254;6.594;2022-12-01T17:16:32;5.90;1.00
51595;DHT22;37677;53.254;6.594;2022-12-01T17:19:02;8.60;1.00
51595;DHT22;37677;53.254;6.594;2022-12-01T17:21:27;5.90;1.00
51595;DHT22;37677;53.254;6.594;2022-12-01T17:23:53;8.50;1.00
51595;DHT22;37677;53.254;6.594;2022-12-01T17:26:20;5.90;1.00
51595;DHT22;37677;53.254;6.594;2022-12-01T17:28:46;6.70;1.00
51595;DHT22;37677;53.254;6.594;2022-12-01T17:31:13;5.90;1.00
51595;DHT22;37677;53.254;6.594;2022-12-01T17:33:39;5.90;1.00
51595;DHT22;37677;53.254;6.594;2022-12-01T17:36:12;8.00;1.00
51595;DHT22;37677;53.254;6.594;2022-12-01T17:38:40;7.00;1.00
51595;DHT22;37677;53.254;6.594;2022-12-01T17:41:12;5.90;1.00
51595;DHT22;37677;53.254;6.594;2022-12-01T17:43:38;5.90;1.00
51595;DHT22;37677;53.254;6.594;2022-12-01T17:46:07;7.00;1.00
51595;DHT22;37677;53.254;6.594;2022-12-01T17:48:43;5.90;1.00
51595;DHT22;37677;53.254;6.594;2022-12-01T17:51:10;5.80;1.00
51595;DHT22;37677;53.254;6.594;2022-12-01T17:53:36;8.70;1.00
51595;DHT22;37677;53.254;6.594;2022-12-01T17:56:08;6.00;1.00
51595;DHT22;37677;53.254;6.594;2022-12-01T17:58:34;5.90;1.00
51595;DHT22;37677;53.254;6.594;2022-12-01T18:01:00;6.20;1.00
51595;DHT22;37677;53.254;6.594;2022-12-01T18:03:26;5.90;1.00
51595;DHT22;37677;53.254;6.594;2022-12-01T18:05:56;6.10;1.00
51595;DHT22;37677;53.254;6.594;2022-12-01T18:08:23;8.00;1.00
51595;DHT22;37677;53.254;6.594;2022-12-01T18:10:49;7.70;1.00
51595;DHT22;37677;53.254;6.594;2022-12-01T18:13:14;5.90;1.00
51595;DHT22;37677;53.254;6.594;2022-12-01T18:15:40;5.80;1.00